Time;durP1;ratioP1;P1;durP2;ratioP2;P2;SDS_P1;SDS_P2;PMS_P1;PMS_P2;Temp;Humidity;BMP_temperature;BMP_pressure;BME280_temperature;BME280_humidity;BME280_pressure;Samples;Min_cycle;Max_cycle;Signal;HPM_P1;HPM_P2
2022/03/12 00:00:36;;;;;;;18.83;10.35;;;4.20;49.40;;;;;;4984052;28;20238;-78
2022/03/12 00:03:05;;;;;;;18.60;10.55;;;4.10;49.30;;;;;;4984299;28;20221;-80
2022/03/12 00:05:35;;;;;;;22.08;11.95;;;3.90;49.50;;;;;;4989481;28;20265;-79
2022/03/12 00:08:04;;;;;;;22.58;12.88;;;3.80;49.60;;;;;;5002602;28;20214;-78
2022/03/12 00:10:33;;;;;;;20.17;10.52;;;3.70;49.70;;;;;;4990309;28;20546;-78
2022/03/12 00:13:03;;;;;;;36.67;17.27;;;3.70;49.80;;;;;;4999168;28;20238;-78
2022/03/12 00:15:32;;;;;;;41.80;17.52;;;3.60;49.90;;;;;;4991458;28;20234;-79
2022/03/12 00:18:00;;;;;;;34.75;16.85;;;3.60;50.00;;;;;;4990260;28;20230;-77
2022/03/12 00:20:32;;;;;;;34.88;16.83;;;3.60;50.10;;;;;;4998130;28;20313;-78
2022/03/12 00:23:00;;;;;;;36.13;14.48;;;3.60;50.20;;;;;;5003977;28;20707;-78
2022/03/12 00:25:28;;;;;;;21.80;13.23;;;3.60;50.30;;;;;;4990575;28;21044;-79
2022/03/12 00:27:56;;;;;;;17.92;9.52;;;3.60;50.30;;;;;;4992628;28;20214;-78
2022/03/12 00:30:26;;;;;;;28.73;16.17;;;3.60;50.20;;;;;;5003845;28;20218;-79
2022/03/12 00:32:55;;;;;;;39.83;18.83;;;3.60;50.20;;;;;;4989831;28;20849;-79
2022/03/12 00:35:23;;;;;;;43.25;20.85;;;3.60;50.20;;;;;;4989522;28;20206;-77
2022/03/12 00:37:51;;;;;;;23.52;12.85;;;3.60;50.30;;;;;;4990561;28;20214;-77
2022/03/12 00:40:21;;;;;;;18.10;9.40;;;3.60;50.40;;;;;;4990088;28;20226;-77
2022/03/12 00:42:49;;;;;;;11.73;7.25;;;3.60;50.40;;;;;;4988926;28;20421;-78
2022/03/12 00:45:17;;;;;;;11.05;7.30;;;3.60;50.30;;;;;;5003379;28;20203;-78
2022/03/12 00:47:48;;;;;;;24.58;11.35;;;3.50;50.20;;;;;;4989380;28;20213;-77
2022/03/12 00:50:16;;;;;;;29.92;12.40;;;3.50;50.40;;;;;;4989685;28;20233;-79
2022/03/12 00:52:44;;;;;;;38.90;13.65;;;3.50;50.40;;;;;;4987468;28;20199;-79
2022/03/12 00:55:12;;;;;;;33.97;15.98;;;3.50;50.40;;;;;;4988659;28;20198;-79
2022/03/12 00:57:40;;;;;;;15.38;8.30;;;3.50;50.50;;;;;;4989703;28;20210;-79
2022/03/12 01:00:15;;;;;;;13.07;8.30;;;3.50;50.50;;;;;;5003973;28;20289;-79
2022/03/12 01:02:44;;;;;;;23.27;12.32;;;3.50;50.50;;;;;;4987134;28;20232;-77
2022/03/12 01:05:17;;;;;;;18.85;11.00;;;3.50;50.50;;;;;;4987244;28;20612;-76
2022/03/12 01:07:46;;;;;;;27.98;13.05;;;3.50;50.50;;;;;;4990008;28;20249;-78
2022/03/12 01:10:14;;;;;;;21.45;9.68;;;3.60;50.60;;;;;;4988226;28;20215;-78
2022/03/12 01:12:45;;;;;;;16.85;8.70;;;3.70;50.60;;;;;;4987584;28;20219;-78
2022/03/12 01:15:13;;;;;;;10.95;7.45;;;3.80;50.50;;;;;;4998725;28;20203;-78
2022/03/12 01:17:41;;;;;;;12.05;7.93;;;3.80;50.50;;;;;;4986918;28;20261;-78
2022/03/12 01:20:10;;;;;;;16.25;9.25;;;3.80;50.40;;;;;;4987323;28;20281;-78
2022/03/12 01:22:39;;;;;;;29.42;13.45;;;3.80;50.40;;;;;;5002403;28;20851;-78
2022/03/12 01:25:09;;;;;;;17.75;10.10;;;3.80;50.40;;;;;;4988623;28;20199;-78
2022/03/12 01:27:37;;;;;;;20.02;11.18;;;3.80;50.40;;;;;;4986584;28;20280;-77
2022/03/12 01:30:07;;;;;;;63.90;27.90;;;3.80;50.50;;;;;;4983318;28;20253;-78
2022/03/12 01:32:36;;;;;;;26.15;13.57;;;3.80;50.60;;;;;;5001394;28;20234;-78
2022/03/12 01:35:05;;;;;;;21.17;9.70;;;3.80;50.60;;;;;;4986037;28;20191;-78
2022/03/12 01:37:33;;;;;;;18.55;10.25;;;3.80;50.50;;;;;;5002597;28;20209;-77
2022/03/12 01:40:03;;;;;;;13.93;9.60;;;3.80;50.70;;;;;;4985363;28;20276;-78
2022/03/12 01:42:31;;;;;;;18.83;10.27;;;3.90;50.80;;;;;;5001667;28;20215;-78
2022/03/12 01:44:59;;;;;;;20.88;11.77;;;3.90;50.80;;;;;;4987344;28;20211;-78
2022/03/12 01:47:27;;;;;;;26.02;13.55;;;4.00;50.80;;;;;;4986275;28;20695;-78
2022/03/12 01:49:56;;;;;;;28.98;15.57;;;4.00;50.80;;;;;;4987864;28;20231;-78
2022/03/12 01:52:27;;;;;;;18.98;11.00;;;4.00;50.80;;;;;;5001840;28;20280;-78
2022/03/12 01:54:56;;;;;;;16.35;9.65;;;4.00;50.90;;;;;;5000866;28;20573;-78
2022/03/12 01:57:25;;;;;;;14.45;8.05;;;4.00;50.80;;;;;;5002280;28;20215;-78
2022/03/12 01:59:54;;;;;;;13.02;7.78;;;4.00;50.90;;;;;;4993212;28;20230;-78
2022/03/12 02:02:21;;;;;;;15.32;8.00;;;3.90;50.80;;;;;;5001244;28;20974;-78
2022/03/12 02:04:52;;;;;;;18.75;10.68;;;3.90;50.80;;;;;;4986101;28;20464;-78
2022/03/12 02:07:21;;;;;;;23.98;10.40;;;3.90;50.80;;;;;;4997957;28;20207;-78
2022/03/12 02:09:49;;;;;;;16.25;8.13;;;3.80;50.80;;;;;;4987276;28;20225;-77
2022/03/12 02:12:17;;;;;;;14.70;9.32;;;3.70;50.80;;;;;;4988002;28;20210;-78
2022/03/12 02:14:46;;;;;;;11.05;7.68;;;3.60;50.70;;;;;;4999078;28;20206;-78
2022/03/12 02:17:15;;;;;;;19.63;9.43;;;3.50;50.70;;;;;;4985662;28;20704;-77
2022/03/12 02:19:42;;;;;;;13.77;7.85;;;3.40;51.10;;;;;;4986267;28;20234;-78
2022/03/12 02:22:15;;;;;;;15.57;7.50;;;3.30;51.10;;;;;;4987169;28;20207;-78
2022/03/12 02:24:45;;;;;;;12.82;7.57;;;3.30;51.20;;;;;;4999799;28;20688;-78
2022/03/12 02:27:13;;;;;;;12.95;7.15;;;3.30;51.30;;;;;;5000633;28;20651;-78
2022/03/12 02:29:42;;;;;;;12.77;7.80;;;3.30;51.30;;;;;;4986647;28;20214;-78
2022/03/12 02:32:13;;;;;;;11.82;7.32;;;3.30;51.40;;;;;;4999033;28;20847;-77
2022/03/12 02:34:44;;;;;;;11.57;7.93;;;3.20;51.40;;;;;;4997794;28;20211;-79
2022/03/12 02:37:28;;;;;;;11.25;7.05;;;3.20;51.40;;;;;;4999426;28;20207;-78
2022/03/12 02:39:59;;;;;;;15.65;8.00;;;3.20;51.50;;;;;;4985945;28;20234;-78
2022/03/12 02:42:28;;;;;;;11.95;7.65;;;3.20;51.50;;;;;;4984901;28;20202;-79
2022/03/12 02:44:59;;;;;;;13.88;8.02;;;3.20;51.60;;;;;;4984979;28;20242;-77
2022/03/12 02:47:31;;;;;;;13.82;7.93;;;3.30;51.70;;;;;;4985888;28;20250;-79
2022/03/12 02:50:04;;;;;;;10.15;6.95;;;3.30;51.70;;;;;;5001350;28;20621;-79
2022/03/12 02:52:36;;;;;;;15.32;8.05;;;3.30;51.70;;;;;;5000135;28;20203;-78
2022/03/12 02:55:09;;;;;;;11.68;7.43;;;3.40;51.70;;;;;;4984213;28;20206;-78
2022/03/12 02:57:37;;;;;;;15.00;8.73;;;3.40;51.70;;;;;;4986611;28;20227;-78
2022/03/12 03:00:08;;;;;;;11.80;7.80;;;3.40;51.80;;;;;;4985802;28;20293;-78
2022/03/12 03:02:40;;;;;;;11.00;7.03;;;3.40;51.80;;;;;;4985204;28;20703;-80
2022/03/12 03:05:21;;;;;;;21.00;10.35;;;3.40;51.80;;;;;;4983876;28;20198;-79
2022/03/12 03:07:54;;;;;;;18.58;8.75;;;3.40;51.80;;;;;;4999243;28;20217;-78
2022/03/12 03:10:33;;;;;;;13.90;7.60;;;3.50;51.80;;;;;;4999355;28;20234;-79
2022/03/12 03:13:37;;;;;;;13.63;7.70;;;3.50;51.80;;;;;;4997989;28;20692;-78
2022/03/12 03:16:09;;;;;;;13.27;7.70;;;3.50;51.90;;;;;;4980764;28;20617;-78
2022/03/12 03:18:40;;;;;;;15.15;8.57;;;3.50;51.80;;;;;;4985041;28;20210;-78
2022/03/12 03:21:10;;;;;;;17.65;8.65;;;3.50;51.90;;;;;;4998713;28;20230;-79
2022/03/12 03:23:39;;;;;;;15.43;8.40;;;3.60;52.00;;;;;;4983099;28;20206;-78
2022/03/12 03:26:08;;;;;;;13.55;7.90;;;3.60;52.00;;;;;;5001660;28;20210;-79
2022/03/12 03:28:36;;;;;;;11.98;7.28;;;3.60;52.00;;;;;;5000103;28;20211;-78
2022/03/12 03:31:06;;;;;;;13.63;8.82;;;3.60;51.90;;;;;;4983632;28;20285;-78
2022/03/12 03:33:35;;;;;;;15.23;8.85;;;3.60;51.80;;;;;;5001200;28;20206;-79
2022/03/12 03:36:03;;;;;;;15.35;9.18;;;3.50;51.90;;;;;;4998368;28;20206;-79
2022/03/12 03:38:31;;;;;;;14.05;9.20;;;3.60;52.00;;;;;;4984360;28;20678;-79
2022/03/12 03:40:59;;;;;;;13.00;8.02;;;3.60;52.00;;;;;;5000954;28;20686;-79
2022/03/12 03:43:28;;;;;;;11.57;6.85;;;3.60;52.00;;;;;;5000886;28;20210;-79
2022/03/12 03:45:58;;;;;;;13.60;7.30;;;3.70;52.00;;;;;;5000858;28;20242;-79
2022/03/12 03:48:36;;;;;;;11.38;7.07;;;3.70;52.00;;;;;;4999431;28;20203;-79
2022/03/12 03:51:04;;;;;;;10.80;6.32;;;3.70;51.90;;;;;;4994323;28;20225;-77
2022/03/12 03:53:32;;;;;;;12.43;6.63;;;3.60;51.90;;;;;;5001061;28;20203;-77
2022/03/12 03:56:01;;;;;;;12.57;7.25;;;3.60;51.90;;;;;;4986396;28;20203;-79
2022/03/12 03:58:32;;;;;;;14.65;7.43;;;3.60;52.00;;;;;;5002081;28;20207;-79
2022/03/12 04:01:03;;;;;;;16.88;7.75;;;3.60;52.10;;;;;;5001074;28;20229;-77
2022/03/12 04:03:32;;;;;;;9.38;6.47;;;3.60;52.20;;;;;;5000878;28;20214;-80
2022/03/12 04:06:02;;;;;;;12.88;7.55;;;3.70;52.10;;;;;;5000800;28;20671;-79
2022/03/12 04:08:31;;;;;;;13.13;7.80;;;3.60;52.10;;;;;;5006459;28;20207;-78
2022/03/12 04:11:04;;;;;;;11.45;6.75;;;3.60;52.10;;;;;;5001258;28;20219;-78
2022/03/12 04:13:34;;;;;;;13.00;7.13;;;3.60;52.20;;;;;;4984812;28;20271;-78
2022/03/12 04:16:04;;;;;;;14.30;7.97;;;3.60;52.30;;;;;;4999545;28;20238;-78
2022/03/12 04:18:33;;;;;;;13.90;7.43;;;3.60;52.30;;;;;;4985520;28;20209;-79
2022/03/12 04:21:01;;;;;;;10.95;6.68;;;3.60;52.30;;;;;;4986146;28;20219;-77
2022/03/12 04:23:29;;;;;;;9.77;6.63;;;3.60;52.20;;;;;;5000259;28;20201;-77
2022/03/12 04:25:59;;;;;;;11.63;6.50;;;3.60;52.20;;;;;;5000785;28;20280;-78
2022/03/12 04:28:32;;;;;;;12.90;8.13;;;3.50;52.30;;;;;;4982783;28;20211;-78
2022/03/12 04:31:03;;;;;;;9.68;6.43;;;3.60;52.40;;;;;;4999402;28;20258;-77
2022/03/12 04:33:32;;;;;;;12.48;6.68;;;3.60;52.50;;;;;;4983962;28;20211;-78
2022/03/12 04:36:02;;;;;;;15.63;7.20;;;3.60;52.40;;;;;;4985411;28;20199;-77
2022/03/12 04:38:30;;;;;;;14.85;6.88;;;3.60;52.40;;;;;;4983580;28;20207;-78
2022/03/12 04:40:58;;;;;;;12.63;7.88;;;3.60;52.40;;;;;;5000784;28;20226;-79
2022/03/12 04:43:28;;;;;;;12.43;7.00;;;3.60;52.40;;;;;;4988494;28;20206;-77
2022/03/12 04:45:58;;;;;;;10.73;6.53;;;3.60;52.50;;;;;;4998797;28;20246;-78
2022/03/12 04:48:29;;;;;;;10.68;6.60;;;3.60;52.50;;;;;;5001232;28;20257;-77
2022/03/12 04:50:57;;;;;;;12.50;7.43;;;3.60;52.50;;;;;;5003328;28;20226;-78
2022/03/12 04:53:27;;;;;;;11.10;6.53;;;3.60;52.50;;;;;;5003823;28;20248;-77
2022/03/12 04:55:56;;;;;;;10.68;6.30;;;3.70;52.60;;;;;;5003549;28;20242;-78
2022/03/12 04:58:24;;;;;;;11.25;6.40;;;3.70;52.70;;;;;;4989543;28;20214;-78
2022/03/12 05:00:51;;;;;;;11.00;6.47;;;3.80;52.60;;;;;;4988823;28;20285;-78
2022/03/12 05:03:22;;;;;;;14.60;6.93;;;3.80;52.60;;;;;;4988750;28;20206;-77
2022/03/12 05:05:52;;;;;;;17.17;7.90;;;3.80;52.60;;;;;;5004611;28;20301;-78
2022/03/12 05:08:22;;;;;;;11.52;6.18;;;3.90;52.60;;;;;;4987841;28;20881;-78
2022/03/12 05:10:52;;;;;;;11.18;6.03;;;3.90;52.60;;;;;;5003991;28;20222;-77
2022/03/12 05:13:27;;;;;;;11.52;6.50;;;3.90;52.50;;;;;;4986897;28;20281;-78
2022/03/12 05:15:58;;;;;;;9.73;6.07;;;3.90;52.50;;;;;;5000493;28;20240;-78
2022/03/12 05:18:26;;;;;;;13.10;6.50;;;3.90;52.40;;;;;;4987597;28;20203;-78
2022/03/12 05:20:56;;;;;;;9.48;6.30;;;3.90;52.30;;;;;;4988625;28;20321;-77
2022/03/12 05:23:26;;;;;;;11.85;6.55;;;3.80;52.30;;;;;;4988016;28;20195;-78
2022/03/12 05:25:54;;;;;;;10.70;5.78;;;3.80;52.40;;;;;;5004073;28;20202;-78
2022/03/12 05:28:26;;;;;;;11.48;6.97;;;3.80;52.30;;;;;;4988820;28;20206;-78
2022/03/12 05:30:59;;;;;;;11.50;7.20;;;3.80;52.20;;;;;;5003008;28;20940;-77
2022/03/12 05:33:27;;;;;;;12.18;6.45;;;3.80;52.30;;;;;;4987294;28;20206;-77
2022/03/12 05:35:58;;;;;;;13.40;6.90;;;3.80;52.20;;;;;;4997141;28;20621;-77
2022/03/12 05:38:31;;;;;;;8.75;5.50;;;3.80;52.20;;;;;;4990747;28;20293;-79
2022/03/12 05:41:00;;;;;;;12.73;5.70;;;3.80;52.20;;;;;;5002940;28;20225;-79
2022/03/12 05:43:30;;;;;;;10.32;5.60;;;3.80;52.20;;;;;;4987765;28;20202;-78
2022/03/12 05:45:59;;;;;;;9.65;5.65;;;3.80;52.00;;;;;;4987509;28;20741;-78
2022/03/12 05:48:27;;;;;;;10.00;6.15;;;3.80;51.80;;;;;;5000770;28;20203;-78
2022/03/12 05:50:57;;;;;;;11.00;5.95;;;3.80;51.80;;;;;;4985862;28;20230;-79
2022/03/12 05:53:27;;;;;;;19.70;6.47;;;3.80;51.90;;;;;;4987103;28;20285;-79
2022/03/12 05:55:55;;;;;;;12.30;8.40;;;3.80;51.60;;;;;;5003128;28;20297;-79
2022/03/12 05:58:25;;;;;;;12.80;7.88;;;3.70;51.50;;;;;;5003031;28;20194;-79
2022/03/12 06:00:54;;;;;;;17.20;10.65;;;3.70;51.60;;;;;;5001151;28;20241;-78
2022/03/12 06:03:24;;;;;;;14.25;8.85;;;3.70;51.50;;;;;;4987247;28;20261;-78
2022/03/12 06:05:56;;;;;;;36.60;16.83;;;3.60;51.50;;;;;;4988031;28;20207;-78
2022/03/12 06:08:26;;;;;;;28.15;14.48;;;3.70;51.50;;;;;;4987592;28;20719;-78
2022/03/12 06:10:55;;;;;;;17.98;11.02;;;3.70;51.40;;;;;;5001313;28;20230;-78
2022/03/12 06:13:25;;;;;;;21.80;12.23;;;3.70;51.30;;;;;;4991227;28;20264;-79
2022/03/12 06:15:58;;;;;;;16.17;11.23;;;3.70;50.90;;;;;;4986767;28;20237;-78
2022/03/12 06:18:28;;;;;;;14.82;10.52;;;3.70;50.90;;;;;;4988318;28;20202;-77
2022/03/12 06:20:56;;;;;;;13.52;9.32;;;3.60;50.80;;;;;;5002143;28;20250;-77
2022/03/12 06:23:27;;;;;;;11.02;7.80;;;3.60;50.70;;;;;;4986998;28;20514;-78
2022/03/12 06:25:55;;;;;;;17.02;9.10;;;3.50;50.30;;;;;;5002600;28;20265;-77
2022/03/12 06:28:23;;;;;;;12.25;8.52;;;3.50;50.70;;;;;;5003022;28;20214;-77
2022/03/12 06:30:53;;;;;;;9.40;6.32;;;3.50;50.70;;;;;;4991181;28;20238;-77
2022/03/12 06:33:22;;;;;;;11.20;7.05;;;3.50;50.40;;;;;;4986609;28;20210;-76
2022/03/12 06:35:52;;;;;;;12.30;7.13;;;3.40;50.10;;;;;;5002436;28;20301;-79
2022/03/12 06:38:21;;;;;;;13.73;7.78;;;3.40;50.50;;;;;;4986502;28;20309;-77
2022/03/12 06:40:51;;;;;;;13.23;7.90;;;3.40;50.50;;;;;;5002249;28;20238;-77
2022/03/12 06:43:19;;;;;;;16.05;7.22;;;3.40;50.60;;;;;;4987043;28;20194;-78
2022/03/12 06:45:48;;;;;;;10.00;6.72;;;3.50;50.60;;;;;;4986146;28;20233;-78
2022/03/12 06:48:22;;;;;;;20.15;8.45;;;3.60;50.50;;;;;;5002145;28;20226;-77
2022/03/12 06:50:56;;;;;;;13.30;8.00;;;3.60;50.30;;;;;;4985649;28;20763;-77
2022/03/12 06:53:25;;;;;;;18.02;9.82;;;3.60;50.30;;;;;;4988132;28;20194;-79
2022/03/12 06:55:55;;;;;;;16.55;10.05;;;3.60;50.10;;;;;;5000482;28;20199;-78
2022/03/12 06:58:24;;;;;;;16.17;7.15;;;3.60;50.00;;;;;;4990170;28;20639;-78
2022/03/12 07:00:52;;;;;;;14.20;8.00;;;3.60;50.10;;;;;;4986336;28;20242;-78
2022/03/12 07:03:20;;;;;;;14.32;7.88;;;3.60;50.00;;;;;;5000064;28;20214;-79
2022/03/12 07:05:48;;;;;;;10.25;6.22;;;3.60;50.20;;;;;;4999172;28;20226;-79
2022/03/12 07:08:16;;;;;;;18.92;7.50;;;3.70;50.50;;;;;;4998201;28;20218;-79
2022/03/12 07:10:44;;;;;;;11.68;6.88;;;3.80;50.40;;;;;;4986002;28;20268;-75
2022/03/12 07:13:17;;;;;;;14.02;8.32;;;3.80;50.20;;;;;;4998702;28;20318;-78
2022/03/12 07:15:45;;;;;;;14.35;9.55;;;3.70;49.80;;;;;;4996707;28;20238;-78
2022/03/12 07:18:13;;;;;;;12.73;8.18;;;3.70;49.90;;;;;;4984447;28;20261;-79
2022/03/12 07:20:41;;;;;;;15.70;8.55;;;3.70;49.60;;;;;;4986302;28;20233;-78
2022/03/12 07:23:09;;;;;;;14.57;8.02;;;3.70;49.70;;;;;;4986228;28;20274;-78
2022/03/12 07:25:37;;;;;;;17.60;10.13;;;3.70;49.70;;;;;;5001641;28;20248;-79
2022/03/12 07:28:06;;;;;;;17.85;8.77;;;3.70;49.60;;;;;;5002167;28;20203;-79
2022/03/12 07:30:35;;;;;;;11.77;6.68;;;3.80;49.40;;;;;;5000974;28;20238;-77
2022/03/12 07:33:03;;;;;;;12.63;7.22;;;3.80;49.50;;;;;;5000354;28;20261;-76
2022/03/12 07:35:32;;;;;;;14.23;7.68;;;3.80;49.30;;;;;;5002236;28;20272;-79
2022/03/12 07:37:59;;;;;;;11.48;7.40;;;3.80;48.80;;;;;;4986517;28;20194;-79
2022/03/12 07:40:28;;;;;;;14.98;8.07;;;3.80;48.90;;;;;;4985119;28;20298;-78
2022/03/12 07:42:56;;;;;;;10.00;6.57;;;3.80;49.00;;;;;;4999303;28;20227;-78
2022/03/12 07:45:26;;;;;;;10.95;7.13;;;3.80;49.00;;;;;;4998350;28;20241;-78
2022/03/12 07:47:55;;;;;;;13.68;7.57;;;3.80;48.80;;;;;;4985357;28;20672;-78
2022/03/12 07:50:26;;;;;;;9.50;6.25;;;3.80;48.90;;;;;;4985147;28;20530;-78
2022/03/12 07:52:54;;;;;;;13.80;7.63;;;3.80;48.80;;;;;;4985922;28;20206;-78
2022/03/12 07:55:23;;;;;;;11.07;7.03;;;3.90;49.00;;;;;;5001133;28;20203;-78
2022/03/12 07:57:51;;;;;;;11.60;6.90;;;3.90;48.50;;;;;;5001008;28;20212;-78
2022/03/12 08:00:19;;;;;;;12.25;7.47;;;3.90;48.60;;;;;;5000824;28;20222;-78
2022/03/12 08:02:49;;;;;;;12.52;8.60;;;4.00;48.50;;;;;;4985146;28;20225;-78
2022/03/12 08:05:23;;;;;;;11.15;6.63;;;4.00;48.50;;;;;;5001841;28;20866;-77
2022/03/12 08:07:54;;;;;;;9.50;7.05;;;4.10;48.50;;;;;;5000823;28;20252;-77
2022/03/12 08:10:22;;;;;;;10.90;6.10;;;4.10;48.60;;;;;;5001566;28;20713;-77
2022/03/12 08:12:51;;;;;;;12.32;7.80;;;4.10;48.60;;;;;;4983957;28;20273;-77
2022/03/12 08:15:20;;;;;;;13.13;6.93;;;4.20;48.60;;;;;;4984627;28;20195;-77
2022/03/12 08:17:48;;;;;;;10.60;7.10;;;4.20;48.60;;;;;;4985578;28;20199;-78
2022/03/12 08:20:19;;;;;;;15.60;9.35;;;4.30;48.60;;;;;;5000984;28;20226;-78
2022/03/12 08:22:47;;;;;;;20.17;13.90;;;4.40;48.50;;;;;;4983414;28;20249;-78
2022/03/12 08:25:16;;;;;;;15.15;9.93;;;4.40;48.60;;;;;;4988531;28;20206;-78
2022/03/12 08:27:44;;;;;;;15.70;8.48;;;4.50;48.60;;;;;;4989842;28;20210;-78
2022/03/12 08:30:14;;;;;;;14.38;8.85;;;4.60;48.40;;;;;;5004242;28;20373;-77
2022/03/12 08:32:42;;;;;;;14.88;7.95;;;4.70;48.30;;;;;;4986640;28;20286;-77
2022/03/12 08:35:12;;;;;;;13.70;7.43;;;4.70;48.30;;;;;;4989532;28;20715;-78
2022/03/12 08:37:41;;;;;;;15.77;7.53;;;4.80;48.00;;;;;;5004438;28;20218;-78
2022/03/12 08:40:14;;;;;;;16.80;8.90;;;4.80;48.10;;;;;;4989793;28;20219;-78
2022/03/12 08:42:42;;;;;;;10.52;7.20;;;4.90;48.10;;;;;;4988520;28;20225;-78
2022/03/12 08:45:11;;;;;;;12.15;7.45;;;4.90;48.00;;;;;;4988893;28;20195;-77
2022/03/12 08:47:45;;;;;;;17.67;9.30;;;5.00;47.90;;;;;;5003719;28;20570;-78
2022/03/12 08:50:13;;;;;;;24.20;10.65;;;5.00;48.10;;;;;;4988863;28;20223;-78
2022/03/12 08:52:43;;;;;;;14.98;9.35;;;5.10;48.00;;;;;;5002815;28;20210;-78
2022/03/12 08:55:12;;;;;;;10.85;7.25;;;5.20;48.00;;;;;;4987652;28;20229;-78
2022/03/12 08:57:40;;;;;;;13.80;7.85;;;5.30;48.00;;;;;;4989372;28;20627;-78
2022/03/12 09:00:12;;;;;;;13.35;7.60;;;5.30;47.90;;;;;;4987224;28;20225;-78
2022/03/12 09:02:41;;;;;;;15.13;8.70;;;5.30;47.60;;;;;;4987915;28;20248;-78
2022/03/12 09:05:12;;;;;;;14.32;8.57;;;5.40;47.80;;;;;;4989166;28;20202;-77
2022/03/12 09:07:44;;;;;;;13.10;7.55;;;5.40;47.60;;;;;;5002646;28;21063;-77
2022/03/12 09:10:13;;;;;;;14.80;7.82;;;5.50;47.60;;;;;;4988917;28;20230;-77
2022/03/12 09:12:42;;;;;;;21.70;11.48;;;5.50;47.70;;;;;;5002794;28;20729;-78
2022/03/12 09:15:12;;;;;;;17.17;8.35;;;5.60;47.70;;;;;;4987486;28;20206;-78
2022/03/12 09:17:39;;;;;;;15.05;8.55;;;5.60;47.70;;;;;;4998440;28;20203;-78
2022/03/12 09:20:09;;;;;;;18.02;9.52;;;5.70;47.30;;;;;;4989061;28;20234;-78
2022/03/12 09:22:37;;;;;;;14.35;9.85;;;5.70;47.10;;;;;;4997361;28;20218;-78
2022/03/12 09:25:11;;;;;;;16.17;10.43;;;5.80;47.30;;;;;;4988688;28;20203;-78
2022/03/12 09:27:40;;;;;;;21.00;10.18;;;5.80;47.30;;;;;;4999587;28;20217;-78
2022/03/12 09:30:08;;;;;;;21.50;11.40;;;5.80;47.10;;;;;;5003318;28;20866;-77
2022/03/12 09:32:37;;;;;;;14.20;8.25;;;5.90;47.20;;;;;;4998924;28;20199;-78
2022/03/12 09:35:05;;;;;;;14.10;8.95;;;5.90;46.90;;;;;;4987719;28;20199;-78
2022/03/12 09:37:37;;;;;;;18.45;9.40;;;6.00;47.20;;;;;;4983173;28;20226;-78
2022/03/12 09:40:08;;;;;;;12.75;7.70;;;6.10;47.20;;;;;;5003320;28;20249;-78
2022/03/12 09:42:36;;;;;;;14.27;8.38;;;6.10;47.10;;;;;;4985882;28;20294;-79
2022/03/12 09:45:06;;;;;;;14.30;8.63;;;6.20;47.10;;;;;;5000844;28;20206;-78
2022/03/12 09:47:34;;;;;;;11.77;7.72;;;6.20;47.00;;;;;;4984431;28;20230;-78
2022/03/12 09:50:02;;;;;;;14.93;8.45;;;6.30;46.80;;;;;;5000046;28;20219;-77
2022/03/12 09:52:30;;;;;;;19.85;9.90;;;6.30;46.70;;;;;;5001563;28;20202;-78
2022/03/12 09:54:58;;;;;;;14.27;8.35;;;6.40;46.60;;;;;;5000617;28;20211;-78
2022/03/12 09:57:27;;;;;;;21.48;8.95;;;6.40;46.90;;;;;;5002445;28;20238;-77
2022/03/12 09:59:56;;;;;;;13.70;8.45;;;6.50;46.90;;;;;;4993528;28;20598;-78
2022/03/12 10:02:24;;;;;;;14.02;7.78;;;6.60;46.80;;;;;;4990332;28;20238;-78
2022/03/12 10:04:53;;;;;;;13.68;8.02;;;6.60;46.80;;;;;;4991991;28;20190;-78
2022/03/12 10:07:23;;;;;;;13.18;8.07;;;6.70;46.50;;;;;;4992178;28;20750;-79
2022/03/12 10:09:51;;;;;;;16.42;8.80;;;6.80;46.50;;;;;;5002522;28;20218;-77
2022/03/12 10:12:19;;;;;;;16.23;8.52;;;6.80;46.50;;;;;;5003253;28;20230;-77
2022/03/12 10:14:49;;;;;;;13.65;8.45;;;6.80;46.40;;;;;;4999225;28;20257;-78
2022/03/12 10:17:18;;;;;;;14.52;9.98;;;6.80;46.30;;;;;;4985999;28;20241;-78
2022/03/12 10:19:46;;;;;;;17.35;8.88;;;6.90;46.40;;;;;;4990237;28;20226;-79
2022/03/12 10:22:14;;;;;;;17.08;10.90;;;6.90;46.40;;;;;;5002933;28;20210;-78
2022/03/12 10:24:43;;;;;;;14.48;8.20;;;7.00;46.50;;;;;;4994278;28;20569;-76
2022/03/12 10:27:10;;;;;;;15.18;8.82;;;7.00;46.20;;;;;;5002862;28;20203;-79
2022/03/12 10:29:39;;;;;;;15.05;9.05;;;7.00;46.20;;;;;;5002716;28;20226;-78
2022/03/12 10:32:23;;;;;;;14.27;9.73;;;7.10;46.20;;;;;;4985675;28;20234;-80
2022/03/12 10:34:53;;;;;;;13.60;8.38;;;7.20;46.20;;;;;;5004964;28;20210;-79
2022/03/12 10:37:22;;;;;;;13.45;7.65;;;7.20;46.40;;;;;;4987016;28;20203;-78
2022/03/12 10:40:03;;;;;;;15.90;8.30;;;7.30;46.30;;;;;;5000877;28;20222;-78
2022/03/12 10:42:32;;;;;;;11.80;8.05;;;7.40;46.30;;;;;;4985633;28;20285;-78
2022/03/12 10:45:09;;;;;;;18.85;9.13;;;7.40;46.10;;;;;;5001758;28;20786;-77
2022/03/12 10:47:44;;;;;;;13.40;8.60;;;7.50;46.10;;;;;;4997182;28;20703;-78
2022/03/12 10:50:16;;;;;;;15.55;8.60;;;7.50;46.00;;;;;;4982273;28;20575;-78
2022/03/12 10:52:49;;;;;;;12.02;8.30;;;7.60;46.10;;;;;;4986523;28;20653;-78
2022/03/12 10:55:24;;;;;;;15.38;9.00;;;7.60;46.00;;;;;;5002171;28;20199;-78
2022/03/12 10:58:07;;;;;;;16.77;8.95;;;7.60;45.90;;;;;;4999666;28;20260;-78
2022/03/12 11:00:38;;;;;;;12.43;8.33;;;7.60;45.80;;;;;;4986655;28;20238;-78
2022/03/12 11:03:12;;;;;;;14.40;8.50;;;7.70;45.80;;;;;;4985394;28;20501;-78
2022/03/12 11:05:43;;;;;;;13.60;9.47;;;7.70;45.80;;;;;;5002543;28;20461;-78
2022/03/12 11:08:15;;;;;;;18.02;8.43;;;7.70;45.70;;;;;;4987356;28;21201;-77
2022/03/12 11:10:50;;;;;;;13.68;8.90;;;7.80;45.80;;;;;;5002687;28;20222;-78
2022/03/12 11:13:40;;;;;;;14.65;8.38;;;7.90;45.80;;;;;;5002197;28;20603;-79
2022/03/12 11:16:15;;;;;;;17.40;8.85;;;7.90;45.50;;;;;;5000409;28;20302;-77
2022/03/12 11:18:57;;;;;;;17.30;9.23;;;8.00;45.60;;;;;;5001988;28;20218;-78
2022/03/12 11:21:27;;;;;;;15.63;9.57;;;8.00;45.40;;;;;;4981879;28;20481;-78
2022/03/12 11:23:57;;;;;;;20.50;11.03;;;8.10;45.40;;;;;;4986463;28;20498;-78
2022/03/12 11:26:26;;;;;;;13.53;8.23;;;8.10;45.50;;;;;;4986845;28;20494;-78
2022/03/12 11:28:56;;;;;;;17.33;8.20;;;8.10;45.50;;;;;;5001145;28;20465;-78
2022/03/12 11:31:48;;;;;;;12.90;8.27;;;8.20;45.40;;;;;;5001112;28;20477;-78
2022/03/12 11:34:23;;;;;;;15.03;8.50;;;8.20;45.30;;;;;;4977976;28;20464;-77
2022/03/12 11:37:06;;;;;;;13.97;8.70;;;8.30;45.30;;;;;;5001857;28;20979;-78
2022/03/12 11:39:39;;;;;;;15.60;10.40;;;8.30;45.30;;;;;;4995082;28;20540;-77
2022/03/12 11:42:11;;;;;;;18.07;10.43;;;8.40;45.20;;;;;;4987506;28;20462;-78
2022/03/12 11:44:41;;;;;;;19.00;11.80;;;8.50;45.40;;;;;;4982845;28;20481;-79
2022/03/12 11:47:10;;;;;;;16.93;10.20;;;8.50;45.50;;;;;;4985951;28;20478;-76
2022/03/12 11:49:39;;;;;;;19.80;10.67;;;8.60;45.40;;;;;;4985934;28;20481;-78
2022/03/12 11:52:08;;;;;;;14.90;9.23;;;8.60;45.40;;;;;;5002178;28;21011;-79
2022/03/12 11:54:41;;;;;;;14.80;9.43;;;8.70;45.20;;;;;;4999471;28;20460;-78
2022/03/12 11:57:09;;;;;;;13.93;8.63;;;8.70;45.40;;;;;;5001500;28;20971;-77
2022/03/12 11:59:38;;;;;;;15.30;8.67;;;8.80;45.20;;;;;;4997496;28;20485;-78
2022/03/12 12:02:30;;;;;;;12.80;8.50;;;8.90;45.20;;;;;;4984544;28;21179;-76
2022/03/12 12:05:04;;;;;;;16.87;8.87;;;8.90;45.10;;;;;;4985135;28;20484;-76
2022/03/12 12:07:36;;;;;;;13.23;8.70;;;9.00;45.20;;;;;;4987012;28;21074;-77
2022/03/12 12:10:05;;;;;;;17.57;9.13;;;9.00;45.30;;;;;;5002613;28;20568;-77
2022/03/12 12:12:41;;;;;;;13.67;9.03;;;9.10;45.20;;;;;;4988845;28;20848;-79
2022/03/12 12:15:13;;;;;;;14.77;9.30;;;9.10;45.30;;;;;;4987762;28;20520;-77
2022/03/12 12:17:42;;;;;;;20.40;9.37;;;9.20;45.20;;;;;;5003389;28;20458;-77
2022/03/12 12:20:14;;;;;;;14.00;9.90;;;9.20;45.00;;;;;;4988185;28;20482;-77
2022/03/12 12:22:42;;;;;;;23.90;10.10;;;9.30;45.30;;;;;;4986709;28;21121;-78
2022/03/12 12:25:11;;;;;;;13.70;8.20;;;9.40;45.30;;;;;;4997721;28;20481;-79
2022/03/12 12:27:44;;;;;;;17.00;9.83;;;9.40;45.30;;;;;;4987121;28;20457;-78
2022/03/12 12:30:16;;;;;;;15.53;8.80;;;9.40;45.30;;;;;;5004495;28;20919;-78
2022/03/12 12:32:46;;;;;;;12.77;7.77;;;9.50;45.30;;;;;;5001557;28;20472;-78
2022/03/12 12:35:18;;;;;;;19.53;9.70;;;9.60;45.30;;;;;;5005336;28;20454;-78
2022/03/12 12:37:49;;;;;;;13.53;9.03;;;9.60;45.30;;;;;;5004222;28;20461;-78
2022/03/12 12:40:23;;;;;;;14.67;8.63;;;9.60;45.20;;;;;;5002053;28;20529;-78
2022/03/12 12:42:52;;;;;;;13.67;8.43;;;9.70;45.20;;;;;;5002279;28;20480;-78
2022/03/12 12:45:23;;;;;;;15.70;8.73;;;9.70;45.20;;;;;;5003772;28;20475;-78
2022/03/12 12:48:06;;;;;;;13.23;8.90;;;9.70;45.20;;;;;;4988864;28;20820;-78
2022/03/12 12:50:36;;;;;;;15.77;9.87;;;9.70;45.20;;;;;;5003063;28;20473;-78
2022/03/12 12:53:27;;;;;;;17.30;8.60;;;9.80;45.30;;;;;;4987086;28;20790;-78
2022/03/12 12:56:22;;;;;;;18.60;10.70;;;9.80;45.30;;;;;;4988322;28;20450;-78
2022/03/12 12:59:06;;;;;;;14.90;9.60;;;9.90;45.30;;;;;;4993173;28;20575;-78
2022/03/12 13:01:47;;;;;;;20.53;10.90;;;9.90;45.40;;;;;;5002884;28;20480;-77